This is the latest recevied weather packets stored in our database for station/object SAVIL. If no packets are shown the sender has not sent any weather packets the latest 10 day(s).
| Time | Temp. | Humidity | Pressure | Rain* | Wind** | Luminosity | Snow |
|---|---|---|---|---|---|---|---|
| 1777711619 | 17.22° C | 37% | 1005.7 hPa | 0 mm | - | - | - |
| 1777710419 | 16.67° C | 42% | 1006 hPa | 0 mm | - | - | - |
| 1777709218 | 15.56° C | 45% | 1006.4 hPa | 0 mm | - | - | - |
| 1777708018 | 15° C | 48% | 1006.9 hPa | 0 mm | - | - | - |
| 1777706818 | 13.33° C | 54% | 1007.4 hPa | 0 mm | - | - | - |
| 1777705618 | 13.33° C | 53% | 1007.8 hPa | 0 mm | - | - | - |
| 1777704418 | 12.78° C | 55% | 1008 hPa | 0 mm | - | - | - |
| 1777703218 | 12.22° C | 56% | 1008.3 hPa | 0 mm | - | - | - |
| 1777702018 | 11.67° C | 56% | 1008.5 hPa | 0 mm | - | - | - |
| 1777700818 | 11.11° C | 61% | 1008.8 hPa | 0 mm | - | - | - |
| 1777699618 | 10° C | 64% | 1009 hPa | 0 mm | - | - | - |
| 1777698418 | 9.44° C | 66% | 1009.2 hPa | 0 mm | - | - | - |
| 1777697218 | 8.33° C | 69% | 1009.3 hPa | 0 mm | - | - | - |
| 1777696018 | 7.78° C | 69% | 1009.4 hPa | 0 mm | - | - | - |
| 1777694817 | 8.33° C | 68% | 1009.6 hPa | 0 mm | - | - | - |
| 1777693617 | 7.22° C | 75% | 1009.8 hPa | 0 mm | - | - | - |
| 1777692417 | 7.22° C | 73% | 1009.9 hPa | 0 mm | - | - | - |
| 1777691217 | 5.56° C | 84% | 1010.1 hPa | 0 mm | - | - | - |
| 1777690017 | 5.56° C | 87% | 1010.3 hPa | 0 mm | - | - | - |
| 1777688817 | 5° C | 86% | 1010.6 hPa | 0 mm | - | - | - |
| 1777687617 | 5° C | 85% | 1010.7 hPa | 0 mm | - | - | - |
| 1777686417 | 5.56° C | 83% | 1010.9 hPa | 0 mm | - | - | - |
| 1777685217 | 5° C | 86% | 1011 hPa | 0 mm | - | - | - |
| 1777684017 | 5.56° C | 87% | 1011.1 hPa | 0 mm | - | - | - |
| 1777682817 | 6.67° C | 81% | 1011 hPa | 0 mm | - | - | - |
* Rain latest hour (hover to see other rain measurements)
** Current wind speed in m/s (hover to see current wind gust speed)